sensor_id;sensor_type;location;lat;lon;timestamp;P1;durP1;ratioP1;P2;durP2;ratioP2
84371;SDS011;74561;50.380;7.626;2024-01-15T00:01:54;19.37;;;6.47;;
84371;SDS011;74561;50.380;7.626;2024-01-15T00:04:19;18.73;;;6.20;;
84371;SDS011;74561;50.380;7.626;2024-01-15T00:06:45;17.57;;;7.67;;
84371;SDS011;74561;50.380;7.626;2024-01-15T00:09:10;18.53;;;6.47;;
84371;SDS011;74561;50.380;7.626;2024-01-15T00:11:35;17.80;;;6.93;;
84371;SDS011;74561;50.380;7.626;2024-01-15T00:14:01;16.63;;;5.53;;
84371;SDS011;74561;50.380;7.626;2024-01-15T00:16:26;17.00;;;6.87;;
84371;SDS011;74561;50.380;7.626;2024-01-15T00:18:51;19.40;;;6.93;;
84371;SDS011;74561;50.380;7.626;2024-01-15T00:21:17;17.50;;;7.33;;
84371;SDS011;74561;50.380;7.626;2024-01-15T00:23:42;14.33;;;5.37;;
84371;SDS011;74561;50.380;7.626;2024-01-15T00:26:09;20.42;;;7.63;;
84371;SDS011;74561;50.380;7.626;2024-01-15T00:28:35;17.40;;;5.63;;
84371;SDS011;74561;50.380;7.626;2024-01-15T00:31:01;16.48;;;6.28;;
84371;SDS011;74561;50.380;7.626;2024-01-15T00:33:27;16.30;;;5.27;;
84371;SDS011;74561;50.380;7.626;2024-01-15T00:35:52;10.57;;;4.97;;
84371;SDS011;74561;50.380;7.626;2024-01-15T00:38:17;16.07;;;5.97;;
84371;SDS011;74561;50.380;7.626;2024-01-15T00:40:43;25.90;;;8.53;;
84371;SDS011;74561;50.380;7.626;2024-01-15T00:43:08;13.60;;;5.87;;
84371;SDS011;74561;50.380;7.626;2024-01-15T00:45:33;17.97;;;6.50;;
84371;SDS011;74561;50.380;7.626;2024-01-15T00:47:59;16.67;;;5.93;;
84371;SDS011;74561;50.380;7.626;2024-01-15T00:50:26;17.77;;;5.00;;
84371;SDS011;74561;50.380;7.626;2024-01-15T00:52:51;11.90;;;5.72;;
84371;SDS011;74561;50.380;7.626;2024-01-15T00:55:16;17.77;;;6.00;;
84371;SDS011;74561;50.380;7.626;2024-01-15T00:57:42;21.47;;;7.87;;
84371;SDS011;74561;50.380;7.626;2024-01-15T01:00:07;16.20;;;6.63;;
84371;SDS011;74561;50.380;7.626;2024-01-15T01:02:34;16.52;;;5.30;;
84371;SDS011;74561;50.380;7.626;2024-01-15T01:04:59;18.08;;;6.05;;
84371;SDS011;74561;50.380;7.626;2024-01-15T01:07:24;19.23;;;7.30;;
84371;SDS011;74561;50.380;7.626;2024-01-15T01:09:51;22.90;;;7.20;;
84371;SDS011;74561;50.380;7.626;2024-01-15T01:12:27;14.82;;;6.40;;
84371;SDS011;74561;50.380;7.626;2024-01-15T01:14:52;13.38;;;5.43;;
84371;SDS011;74561;50.380;7.626;2024-01-15T01:17:18;14.80;;;5.87;;
84371;SDS011;74561;50.380;7.626;2024-01-15T01:19:46;15.20;;;6.10;;
84371;SDS011;74561;50.380;7.626;2024-01-15T01:22:11;16.95;;;5.88;;
84371;SDS011;74561;50.380;7.626;2024-01-15T01:24:37;17.33;;;7.20;;
84371;SDS011;74561;50.380;7.626;2024-01-15T01:27:02;19.90;;;6.87;;
84371;SDS011;74561;50.380;7.626;2024-01-15T01:29:28;15.40;;;5.78;;
84371;SDS011;74561;50.380;7.626;2024-01-15T01:31:53;20.25;;;6.68;;
84371;SDS011;74561;50.380;7.626;2024-01-15T01:34:24;20.93;;;8.37;;
84371;SDS011;74561;50.380;7.626;2024-01-15T01:36:50;14.63;;;6.82;;
84371;SDS011;74561;50.380;7.626;2024-01-15T01:39:15;17.67;;;5.90;;
84371;SDS011;74561;50.380;7.626;2024-01-15T01:41:40;16.50;;;6.57;;
84371;SDS011;74561;50.380;7.626;2024-01-15T01:44:06;21.15;;;6.70;;
84371;SDS011;74561;50.380;7.626;2024-01-15T01:46:32;22.65;;;7.05;;
84371;SDS011;74561;50.380;7.626;2024-01-15T01:48:58;18.65;;;6.43;;
84371;SDS011;74561;50.380;7.626;2024-01-15T01:51:26;17.42;;;6.20;;
84371;SDS011;74561;50.380;7.626;2024-01-15T01:53:52;20.70;;;7.57;;
84371;SDS011;74561;50.380;7.626;2024-01-15T01:56:17;20.87;;;7.37;;
84371;SDS011;74561;50.380;7.626;2024-01-15T01:58:43;21.25;;;7.50;;
84371;SDS011;74561;50.380;7.626;2024-01-15T02:01:09;17.42;;;7.18;;
84371;SDS011;74561;50.380;7.626;2024-01-15T02:03:35;25.13;;;8.18;;
84371;SDS011;74561;50.380;7.626;2024-01-15T02:06:00;21.92;;;8.13;;
84371;SDS011;74561;50.380;7.626;2024-01-15T02:08:26;23.83;;;7.63;;
84371;SDS011;74561;50.380;7.626;2024-01-15T02:10:58;16.25;;;6.38;;
84371;SDS011;74561;50.380;7.626;2024-01-15T02:13:24;23.08;;;7.43;;
84371;SDS011;74561;50.380;7.626;2024-01-15T02:15:49;17.83;;;7.40;;
84371;SDS011;74561;50.380;7.626;2024-01-15T02:18:14;17.30;;;6.43;;
84371;SDS011;74561;50.380;7.626;2024-01-15T02:20:40;18.23;;;7.33;;
84371;SDS011;74561;50.380;7.626;2024-01-15T02:23:12;21.00;;;6.97;;
84371;SDS011;74561;50.380;7.626;2024-01-15T02:25:43;17.08;;;5.75;;
84371;SDS011;74561;50.380;7.626;2024-01-15T02:28:10;19.65;;;7.18;;
84371;SDS011;74561;50.380;7.626;2024-01-15T02:30:37;20.23;;;6.30;;
84371;SDS011;74561;50.380;7.626;2024-01-15T02:33:08;19.45;;;8.45;;
84371;SDS011;74561;50.380;7.626;2024-01-15T02:35:37;22.58;;;7.13;;
84371;SDS011;74561;50.380;7.626;2024-01-15T02:38:03;17.10;;;6.70;;
84371;SDS011;74561;50.380;7.626;2024-01-15T02:40:28;22.25;;;7.68;;
84371;SDS011;74561;50.380;7.626;2024-01-15T02:42:54;25.43;;;8.17;;
84371;SDS011;74561;50.380;7.626;2024-01-15T02:45:19;24.60;;;8.23;;
84371;SDS011;74561;50.380;7.626;2024-01-15T02:47:45;17.45;;;6.72;;
84371;SDS011;74561;50.380;7.626;2024-01-15T02:50:10;20.40;;;8.30;;
84371;SDS011;74561;50.380;7.626;2024-01-15T02:52:35;26.50;;;7.57;;
84371;SDS011;74561;50.380;7.626;2024-01-15T02:55:11;17.63;;;7.37;;
84371;SDS011;74561;50.380;7.626;2024-01-15T02:57:36;20.50;;;7.28;;
84371;SDS011;74561;50.380;7.626;2024-01-15T03:00:02;21.23;;;6.87;;
84371;SDS011;74561;50.380;7.626;2024-01-15T03:02:28;17.58;;;7.07;;
84371;SDS011;74561;50.380;7.626;2024-01-15T03:04:53;23.07;;;8.17;;
84371;SDS011;74561;50.380;7.626;2024-01-15T03:07:19;25.27;;;8.43;;
84371;SDS011;74561;50.380;7.626;2024-01-15T03:09:44;20.30;;;7.27;;
84371;SDS011;74561;50.380;7.626;2024-01-15T03:12:09;22.33;;;7.33;;
84371;SDS011;74561;50.380;7.626;2024-01-15T03:14:36;17.50;;;5.75;;
84371;SDS011;74561;50.380;7.626;2024-01-15T03:17:02;23.33;;;8.18;;
84371;SDS011;74561;50.380;7.626;2024-01-15T03:19:27;25.17;;;8.00;;
84371;SDS011;74561;50.380;7.626;2024-01-15T03:21:53;25.02;;;8.38;;
84371;SDS011;74561;50.380;7.626;2024-01-15T03:29:33;19.60;;;7.40;;
84371;SDS011;74561;50.380;7.626;2024-01-15T03:31:59;22.63;;;8.15;;
84371;SDS011;74561;50.380;7.626;2024-01-15T03:34:25;26.52;;;8.40;;
84371;SDS011;74561;50.380;7.626;2024-01-15T03:36:50;21.88;;;7.45;;
84371;SDS011;74561;50.380;7.626;2024-01-15T03:39:16;23.55;;;8.20;;
84371;SDS011;74561;50.380;7.626;2024-01-15T03:41:41;20.50;;;6.82;;
84371;SDS011;74561;50.380;7.626;2024-01-15T03:44:07;19.35;;;7.03;;
84371;SDS011;74561;50.380;7.626;2024-01-15T03:46:33;20.98;;;6.78;;
84371;SDS011;74561;50.380;7.626;2024-01-15T03:48:58;21.83;;;7.13;;
84371;SDS011;74561;50.380;7.626;2024-01-15T03:51:24;23.52;;;8.32;;
84371;SDS011;74561;50.380;7.626;2024-01-15T03:53:50;24.20;;;7.13;;
84371;SDS011;74561;50.380;7.626;2024-01-15T03:56:15;18.13;;;6.85;;
84371;SDS011;74561;50.380;7.626;2024-01-15T03:58:41;24.88;;;8.02;;
84371;SDS011;74561;50.380;7.626;2024-01-15T04:01:09;13.50;;;5.82;;
84371;SDS011;74561;50.380;7.626;2024-01-15T04:03:35;23.25;;;8.30;;
84371;SDS011;74561;50.380;7.626;2024-01-15T04:06:01;20.15;;;7.38;;
84371;SDS011;74561;50.380;7.626;2024-01-15T04:08:26;20.40;;;7.13;;
84371;SDS011;74561;50.380;7.626;2024-01-15T04:10:52;24.35;;;7.85;;
84371;SDS011;74561;50.380;7.626;2024-01-15T04:13:17;23.85;;;7.75;;
84371;SDS011;74561;50.380;7.626;2024-01-15T04:15:43;23.90;;;8.18;;
84371;SDS011;74561;50.380;7.626;2024-01-15T04:18:08;23.27;;;8.38;;
84371;SDS011;74561;50.380;7.626;2024-01-15T04:20:34;16.02;;;6.07;;
84371;SDS011;74561;50.380;7.626;2024-01-15T04:22:59;21.00;;;8.13;;
84371;SDS011;74561;50.380;7.626;2024-01-15T04:25:25;28.45;;;7.55;;
84371;SDS011;74561;50.380;7.626;2024-01-15T04:27:51;23.73;;;8.40;;
84371;SDS011;74561;50.380;7.626;2024-01-15T04:30:16;20.88;;;7.65;;
84371;SDS011;74561;50.380;7.626;2024-01-15T04:32:42;24.05;;;8.02;;
84371;SDS011;74561;50.380;7.626;2024-01-15T04:35:07;22.93;;;7.97;;
84371;SDS011;74561;50.380;7.626;2024-01-15T04:37:33;22.83;;;7.90;;
84371;SDS011;74561;50.380;7.626;2024-01-15T04:39:58;21.50;;;8.10;;
84371;SDS011;74561;50.380;7.626;2024-01-15T04:42:24;21.15;;;6.63;;
84371;SDS011;74561;50.380;7.626;2024-01-15T04:44:50;27.35;;;8.25;;
84371;SDS011;74561;50.380;7.626;2024-01-15T04:47:15;26.38;;;8.73;;
84371;SDS011;74561;50.380;7.626;2024-01-15T04:49:41;26.75;;;8.40;;
84371;SDS011;74561;50.380;7.626;2024-01-15T04:52:07;23.73;;;8.65;;
84371;SDS011;74561;50.380;7.626;2024-01-15T04:54:35;29.83;;;8.70;;
84371;SDS011;74561;50.380;7.626;2024-01-15T04:57:01;22.23;;;8.23;;
84371;SDS011;74561;50.380;7.626;2024-01-15T04:59:28;23.20;;;8.75;;
84371;SDS011;74561;50.380;7.626;2024-01-15T05:01:54;21.70;;;8.50;;
84371;SDS011;74561;50.380;7.626;2024-01-15T05:04:20;22.10;;;8.68;;
84371;SDS011;74561;50.380;7.626;2024-01-15T05:06:46;27.90;;;8.98;;
84371;SDS011;74561;50.380;7.626;2024-01-15T05:09:11;22.77;;;7.97;;
84371;SDS011;74561;50.380;7.626;2024-01-15T05:11:38;23.75;;;7.95;;
84371;SDS011;74561;50.380;7.626;2024-01-15T05:14:04;28.05;;;8.52;;
84371;SDS011;74561;50.380;7.626;2024-01-15T05:16:30;25.92;;;8.82;;
84371;SDS011;74561;50.380;7.626;2024-01-15T05:18:55;25.98;;;8.27;;
84371;SDS011;74561;50.380;7.626;2024-01-15T05:21:21;27.67;;;8.82;;
84371;SDS011;74561;50.380;7.626;2024-01-15T05:23:49;23.10;;;6.55;;
84371;SDS011;74561;50.380;7.626;2024-01-15T05:26:15;23.10;;;8.27;;
84371;SDS011;74561;50.380;7.626;2024-01-15T05:28:41;24.88;;;8.95;;
84371;SDS011;74561;50.380;7.626;2024-01-15T05:31:07;22.00;;;8.05;;
84371;SDS011;74561;50.380;7.626;2024-01-15T05:33:34;24.95;;;8.23;;
84371;SDS011;74561;50.380;7.626;2024-01-15T05:35:59;29.38;;;9.45;;
84371;SDS011;74561;50.380;7.626;2024-01-15T05:38:25;29.58;;;8.98;;
84371;SDS011;74561;50.380;7.626;2024-01-15T05:40:51;25.10;;;9.13;;
84371;SDS011;74561;50.380;7.626;2024-01-15T05:43:16;20.15;;;6.50;;
84371;SDS011;74561;50.380;7.626;2024-01-15T05:45:45;27.52;;;9.05;;
84371;SDS011;74561;50.380;7.626;2024-01-15T05:48:11;25.45;;;8.80;;
84371;SDS011;74561;50.380;7.626;2024-01-15T05:50:41;28.23;;;8.95;;
84371;SDS011;74561;50.380;7.626;2024-01-15T05:55:39;29.42;;;9.45;;
84371;SDS011;74561;50.380;7.626;2024-01-15T05:58:05;28.98;;;9.73;;
84371;SDS011;74561;50.380;7.626;2024-01-15T06:00:31;29.42;;;9.57;;
84371;SDS011;74561;50.380;7.626;2024-01-15T06:02:58;28.30;;;9.02;;
84371;SDS011;74561;50.380;7.626;2024-01-15T06:05:24;28.33;;;8.90;;
84371;SDS011;74561;50.380;7.626;2024-01-15T06:07:50;27.25;;;9.93;;
84371;SDS011;74561;50.380;7.626;2024-01-15T06:10:16;27.90;;;9.77;;
84371;SDS011;74561;50.380;7.626;2024-01-15T06:12:42;29.00;;;9.13;;
84371;SDS011;74561;50.380;7.626;2024-01-15T06:15:08;27.20;;;8.55;;
84371;SDS011;74561;50.380;7.626;2024-01-15T06:17:34;25.77;;;9.40;;
84371;SDS011;74561;50.380;7.626;2024-01-15T06:20:00;27.98;;;9.98;;
84371;SDS011;74561;50.380;7.626;2024-01-15T06:22:25;33.67;;;10.38;;
84371;SDS011;74561;50.380;7.626;2024-01-15T06:24:51;24.52;;;8.60;;
84371;SDS011;74561;50.380;7.626;2024-01-15T06:27:17;25.27;;;9.60;;
84371;SDS011;74561;50.380;7.626;2024-01-15T06:29:45;24.13;;;9.45;;
84371;SDS011;74561;50.380;7.626;2024-01-15T06:32:13;20.48;;;7.43;;
84371;SDS011;74561;50.380;7.626;2024-01-15T06:34:39;25.15;;;8.48;;
84371;SDS011;74561;50.380;7.626;2024-01-15T06:37:04;25.08;;;9.32;;
84371;SDS011;74561;50.380;7.626;2024-01-15T06:39:30;26.65;;;9.48;;
84371;SDS011;74561;50.380;7.626;2024-01-15T06:41:56;24.55;;;8.70;;
84371;SDS011;74561;50.380;7.626;2024-01-15T06:44:21;23.80;;;8.45;;
84371;SDS011;74561;50.380;7.626;2024-01-15T06:46:51;26.95;;;8.60;;
84371;SDS011;74561;50.380;7.626;2024-01-15T06:49:16;20.75;;;7.82;;
84371;SDS011;74561;50.380;7.626;2024-01-15T06:51:42;24.58;;;9.18;;
84371;SDS011;74561;50.380;7.626;2024-01-15T06:54:08;23.15;;;8.45;;
84371;SDS011;74561;50.380;7.626;2024-01-15T06:56:33;28.50;;;9.35;;
84371;SDS011;74561;50.380;7.626;2024-01-15T06:58:59;27.48;;;9.63;;
84371;SDS011;74561;50.380;7.626;2024-01-15T07:01:25;28.60;;;9.98;;
84371;SDS011;74561;50.380;7.626;2024-01-15T07:03:50;23.65;;;9.13;;
84371;SDS011;74561;50.380;7.626;2024-01-15T07:06:16;25.15;;;9.10;;
84371;SDS011;74561;50.380;7.626;2024-01-15T07:08:42;28.35;;;8.90;;
84371;SDS011;74561;50.380;7.626;2024-01-15T07:11:08;23.25;;;9.50;;
84371;SDS011;74561;50.380;7.626;2024-01-15T07:13:33;24.27;;;8.60;;
84371;SDS011;74561;50.380;7.626;2024-01-15T07:15:59;27.83;;;10.55;;
84371;SDS011;74561;50.380;7.626;2024-01-15T07:18:24;24.95;;;9.77;;
84371;SDS011;74561;50.380;7.626;2024-01-15T07:20:50;28.02;;;9.27;;
84371;SDS011;74561;50.380;7.626;2024-01-15T07:23:15;30.37;;;11.67;;
84371;SDS011;74561;50.380;7.626;2024-01-15T07:25:42;25.77;;;8.90;;
84371;SDS011;74561;50.380;7.626;2024-01-15T07:28:07;29.90;;;9.73;;
84371;SDS011;74561;50.380;7.626;2024-01-15T07:30:32;28.97;;;9.50;;
84371;SDS011;74561;50.380;7.626;2024-01-15T07:32:58;28.98;;;9.70;;
84371;SDS011;74561;50.380;7.626;2024-01-15T07:35:23;19.98;;;7.38;;
84371;SDS011;74561;50.380;7.626;2024-01-15T07:37:49;16.23;;;5.93;;
84371;SDS011;74561;50.380;7.626;2024-01-15T07:40:14;27.90;;;8.87;;
84371;SDS011;74561;50.380;7.626;2024-01-15T07:42:40;23.83;;;9.43;;
84371;SDS011;74561;50.380;7.626;2024-01-15T07:45:05;24.98;;;9.27;;
84371;SDS011;74561;50.380;7.626;2024-01-15T07:47:31;20.27;;;9.02;;
84371;SDS011;74561;50.380;7.626;2024-01-15T07:49:56;20.85;;;8.10;;
84371;SDS011;74561;50.380;7.626;2024-01-15T07:52:22;25.50;;;8.87;;
84371;SDS011;74561;50.380;7.626;2024-01-15T07:54:47;33.23;;;9.57;;
84371;SDS011;74561;50.380;7.626;2024-01-15T07:57:12;25.20;;;8.27;;
84371;SDS011;74561;50.380;7.626;2024-01-15T07:59:38;22.42;;;8.70;;
84371;SDS011;74561;50.380;7.626;2024-01-15T08:02:03;22.60;;;8.03;;
84371;SDS011;74561;50.380;7.626;2024-01-15T08:04:28;25.97;;;9.63;;
84371;SDS011;74561;50.380;7.626;2024-01-15T08:06:54;21.73;;;9.30;;
84371;SDS011;74561;50.380;7.626;2024-01-15T08:09:19;21.02;;;8.07;;
84371;SDS011;74561;50.380;7.626;2024-01-15T08:11:45;22.40;;;8.40;;
84371;SDS011;74561;50.380;7.626;2024-01-15T08:14:10;23.20;;;7.60;;
84371;SDS011;74561;50.380;7.626;2024-01-15T08:16:40;24.50;;;9.27;;
84371;SDS011;74561;50.380;7.626;2024-01-15T08:19:05;26.83;;;8.95;;
84371;SDS011;74561;50.380;7.626;2024-01-15T08:21:30;24.50;;;8.93;;
84371;SDS011;74561;50.380;7.626;2024-01-15T08:23:57;23.17;;;9.40;;
84371;SDS011;74561;50.380;7.626;2024-01-15T08:26:25;23.30;;;8.48;;
84371;SDS011;74561;50.380;7.626;2024-01-15T08:28:51;25.65;;;8.38;;
84371;SDS011;74561;50.380;7.626;2024-01-15T08:31:16;20.70;;;8.27;;
84371;SDS011;74561;50.380;7.626;2024-01-15T08:33:42;23.55;;;9.45;;
84371;SDS011;74561;50.380;7.626;2024-01-15T08:36:07;20.27;;;8.52;;
84371;SDS011;74561;50.380;7.626;2024-01-15T08:38:32;22.83;;;9.13;;
84371;SDS011;74561;50.380;7.626;2024-01-15T08:40:58;24.03;;;9.87;;
84371;SDS011;74561;50.380;7.626;2024-01-15T08:43:25;13.93;;;6.93;;
84371;SDS011;74561;50.380;7.626;2024-01-15T08:45:51;24.50;;;9.25;;
84371;SDS011;74561;50.380;7.626;2024-01-15T08:48:16;25.43;;;8.93;;
84371;SDS011;74561;50.380;7.626;2024-01-15T08:50:42;17.48;;;7.82;;
84371;SDS011;74561;50.380;7.626;2024-01-15T08:53:07;20.53;;;8.00;;
84371;SDS011;74561;50.380;7.626;2024-01-15T08:55:33;18.63;;;6.73;;
84371;SDS011;74561;50.380;7.626;2024-01-15T08:57:58;21.65;;;8.45;;
84371;SDS011;74561;50.380;7.626;2024-01-15T09:00:24;14.50;;;5.83;;
84371;SDS011;74561;50.380;7.626;2024-01-15T09:02:49;22.23;;;7.53;;
84371;SDS011;74561;50.380;7.626;2024-01-15T09:05:14;17.63;;;7.57;;
84371;SDS011;74561;50.380;7.626;2024-01-15T09:07:40;17.70;;;7.95;;
84371;SDS011;74561;50.380;7.626;2024-01-15T09:10:05;23.97;;;8.40;;
84371;SDS011;74561;50.380;7.626;2024-01-15T09:12:31;17.10;;;7.93;;
84371;SDS011;74561;50.380;7.626;2024-01-15T09:14:57;23.17;;;8.68;;
84371;SDS011;74561;50.380;7.626;2024-01-15T09:17:22;18.50;;;8.37;;
84371;SDS011;74561;50.380;7.626;2024-01-15T09:19:50;18.50;;;7.25;;
84371;SDS011;74561;50.380;7.626;2024-01-15T09:22:16;18.33;;;7.37;;
84371;SDS011;74561;50.380;7.626;2024-01-15T09:24:44;18.55;;;7.38;;
84371;SDS011;74561;50.380;7.626;2024-01-15T09:27:10;18.17;;;7.78;;
84371;SDS011;74561;50.380;7.626;2024-01-15T09:29:35;14.45;;;5.78;;
84371;SDS011;74561;50.380;7.626;2024-01-15T09:32:04;15.82;;;7.00;;
84371;SDS011;74561;50.380;7.626;2024-01-15T09:34:30;17.42;;;7.20;;
84371;SDS011;74561;50.380;7.626;2024-01-15T09:36:56;12.07;;;5.80;;
84371;SDS011;74561;50.380;7.626;2024-01-15T09:39:21;16.10;;;7.27;;
84371;SDS011;74561;50.380;7.626;2024-01-15T09:41:48;11.82;;;5.75;;
84371;SDS011;74561;50.380;7.626;2024-01-15T09:44:14;14.23;;;6.03;;
84371;SDS011;74561;50.380;7.626;2024-01-15T09:46:40;18.40;;;7.78;;
84371;SDS011;74561;50.380;7.626;2024-01-15T09:49:06;15.05;;;5.88;;
84371;SDS011;74561;50.380;7.626;2024-01-15T09:51:31;11.97;;;5.90;;
84371;SDS011;74561;50.380;7.626;2024-01-15T09:53:57;18.25;;;6.95;;
84371;SDS011;74561;50.380;7.626;2024-01-15T09:56:23;13.88;;;6.60;;
84371;SDS011;74561;50.380;7.626;2024-01-15T09:58:49;12.95;;;5.35;;
84371;SDS011;74561;50.380;7.626;2024-01-15T10:01:16;14.75;;;6.35;;
84371;SDS011;74561;50.380;7.626;2024-01-15T10:03:42;12.63;;;6.28;;
84371;SDS011;74561;50.380;7.626;2024-01-15T10:06:07;19.07;;;6.47;;
84371;SDS011;74561;50.380;7.626;2024-01-15T10:08:34;10.13;;;4.63;;
84371;SDS011;74561;50.380;7.626;2024-01-15T10:11:01;15.30;;;5.90;;
84371;SDS011;74561;50.380;7.626;2024-01-15T10:13:28;13.75;;;6.30;;
84371;SDS011;74561;50.380;7.626;2024-01-15T10:15:55;12.25;;;5.15;;
84371;SDS011;74561;50.380;7.626;2024-01-15T10:18:20;11.20;;;5.27;;
84371;SDS011;74561;50.380;7.626;2024-01-15T10:20:46;12.73;;;6.73;;
84371;SDS011;74561;50.380;7.626;2024-01-15T10:23:12;16.50;;;6.47;;
84371;SDS011;74561;50.380;7.626;2024-01-15T10:25:47;16.58;;;6.80;;
84371;SDS011;74561;50.380;7.626;2024-01-15T10:28:14;8.82;;;5.47;;
84371;SDS011;74561;50.380;7.626;2024-01-15T10:30:39;14.68;;;5.88;;
84371;SDS011;74561;50.380;7.626;2024-01-15T10:33:05;14.37;;;6.53;;
84371;SDS011;74561;50.380;7.626;2024-01-15T10:35:30;13.27;;;6.07;;
84371;SDS011;74561;50.380;7.626;2024-01-15T10:37:57;15.00;;;7.35;;
84371;SDS011;74561;50.380;7.626;2024-01-15T10:40:23;12.68;;;6.07;;
84371;SDS011;74561;50.380;7.626;2024-01-15T10:42:49;17.47;;;6.50;;
84371;SDS011;74561;50.380;7.626;2024-01-15T10:45:14;15.00;;;6.75;;
84371;SDS011;74561;50.380;7.626;2024-01-15T10:47:40;10.13;;;4.55;;
84371;SDS011;74561;50.380;7.626;2024-01-15T10:50:06;14.35;;;6.18;;
84371;SDS011;74561;50.380;7.626;2024-01-15T10:52:36;13.43;;;5.72;;
84371;SDS011;74561;50.380;7.626;2024-01-15T10:55:03;10.63;;;4.38;;
84371;SDS011;74561;50.380;7.626;2024-01-15T10:57:29;12.43;;;6.57;;
84371;SDS011;74561;50.380;7.626;2024-01-15T10:59:55;17.27;;;6.93;;
84371;SDS011;74561;50.380;7.626;2024-01-15T11:02:20;15.77;;;7.17;;
84371;SDS011;74561;50.380;7.626;2024-01-15T11:04:45;16.90;;;7.15;;
84371;SDS011;74561;50.380;7.626;2024-01-15T11:07:11;17.50;;;6.77;;
84371;SDS011;74561;50.380;7.626;2024-01-15T11:09:36;14.00;;;5.93;;
84371;SDS011;74561;50.380;7.626;2024-01-15T11:12:15;18.50;;;7.93;;
84371;SDS011;74561;50.380;7.626;2024-01-15T11:14:45;21.75;;;7.93;;
84371;SDS011;74561;50.380;7.626;2024-01-15T11:17:14;17.38;;;6.68;;
84371;SDS011;74561;50.380;7.626;2024-01-15T11:19:47;16.63;;;7.43;;
84371;SDS011;74561;50.380;7.626;2024-01-15T11:22:57;16.92;;;7.30;;
84371;SDS011;74561;50.380;7.626;2024-01-15T11:25:13;15.20;;;6.57;;
84371;SDS011;74561;50.380;7.626;2024-01-15T11:27:43;16.83;;;6.45;;
84371;SDS011;74561;50.380;7.626;2024-01-15T11:30:12;16.08;;;7.60;;
84371;SDS011;74561;50.380;7.626;2024-01-15T11:32:38;21.52;;;8.32;;
84371;SDS011;74561;50.380;7.626;2024-01-15T11:35:07;19.92;;;8.10;;
84371;SDS011;74561;50.380;7.626;2024-01-15T11:40:20;15.68;;;7.13;;
84371;SDS011;74561;50.380;7.626;2024-01-15T11:42:46;18.25;;;7.22;;
84371;SDS011;74561;50.380;7.626;2024-01-15T11:45:13;19.80;;;8.60;;
84371;SDS011;74561;50.380;7.626;2024-01-15T11:47:59;21.52;;;9.70;;
84371;SDS011;74561;50.380;7.626;2024-01-15T11:50:25;17.45;;;7.72;;
84371;SDS011;74561;50.380;7.626;2024-01-15T11:52:56;18.35;;;8.38;;
84371;SDS011;74561;50.380;7.626;2024-01-15T11:58:01;23.75;;;10.00;;
84371;SDS011;74561;50.380;7.626;2024-01-15T12:00:27;18.45;;;8.13;;
84371;SDS011;74561;50.380;7.626;2024-01-15T12:02:53;19.52;;;8.57;;
84371;SDS011;74561;50.380;7.626;2024-01-15T12:05:19;19.88;;;8.88;;
84371;SDS011;74561;50.380;7.626;2024-01-15T12:07:46;22.73;;;8.80;;
84371;SDS011;74561;50.380;7.626;2024-01-15T12:10:16;25.08;;;10.13;;
84371;SDS011;74561;50.380;7.626;2024-01-15T12:15:36;19.42;;;8.38;;
84371;SDS011;74561;50.380;7.626;2024-01-15T12:18:05;19.38;;;9.48;;
84371;SDS011;74561;50.380;7.626;2024-01-15T12:20:31;20.95;;;9.20;;
84371;SDS011;74561;50.380;7.626;2024-01-15T12:22:58;21.75;;;8.18;;
84371;SDS011;74561;50.380;7.626;2024-01-15T12:28:50;20.48;;;8.52;;
84371;SDS011;74561;50.380;7.626;2024-01-15T12:31:36;17.95;;;7.88;;
84371;SDS011;74561;50.380;7.626;2024-01-15T12:34:02;21.10;;;9.00;;
84371;SDS011;74561;50.380;7.626;2024-01-15T12:37:04;20.95;;;8.48;;
84371;SDS011;74561;50.380;7.626;2024-01-15T12:39:31;22.30;;;8.55;;
84371;SDS011;74561;50.380;7.626;2024-01-15T12:41:59;22.02;;;8.88;;
84371;SDS011;74561;50.380;7.626;2024-01-15T12:44:24;15.60;;;6.80;;
84371;SDS011;74561;50.380;7.626;2024-01-15T12:46:49;15.50;;;7.13;;
84371;SDS011;74561;50.380;7.626;2024-01-15T12:49:16;13.30;;;6.72;;
84371;SDS011;74561;50.380;7.626;2024-01-15T12:51:41;17.33;;;7.33;;
84371;SDS011;74561;50.380;7.626;2024-01-15T12:54:06;13.93;;;7.00;;
84371;SDS011;74561;50.380;7.626;2024-01-15T12:56:32;11.23;;;5.20;;
84371;SDS011;74561;50.380;7.626;2024-01-15T12:58:57;12.37;;;5.40;;
84371;SDS011;74561;50.380;7.626;2024-01-15T13:01:22;10.47;;;5.33;;
84371;SDS011;74561;50.380;7.626;2024-01-15T13:03:48;10.90;;;4.93;;
84371;SDS011;74561;50.380;7.626;2024-01-15T13:06:13;6.70;;;3.37;;
84371;SDS011;74561;50.380;7.626;2024-01-15T13:08:38;10.47;;;4.43;;
84371;SDS011;74561;50.380;7.626;2024-01-15T13:11:03;10.63;;;5.30;;
84371;SDS011;74561;50.380;7.626;2024-01-15T13:13:29;10.17;;;4.97;;
84371;SDS011;74561;50.380;7.626;2024-01-15T13:15:55;8.38;;;4.97;;
84371;SDS011;74561;50.380;7.626;2024-01-15T13:18:20;13.60;;;5.37;;
84371;SDS011;74561;50.380;7.626;2024-01-15T13:20:46;12.27;;;5.10;;
84371;SDS011;74561;50.380;7.626;2024-01-15T13:23:11;14.93;;;6.83;;
84371;SDS011;74561;50.380;7.626;2024-01-15T13:25:37;26.00;;;11.00;;
84371;SDS011;74561;50.380;7.626;2024-01-15T13:30:51;15.43;;;7.22;;
84371;SDS011;74561;50.380;7.626;2024-01-15T14:01:37;8.32;;;3.30;;
84371;SDS011;74561;50.380;7.626;2024-01-15T14:04:03;7.77;;;2.93;;
84371;SDS011;74561;50.380;7.626;2024-01-15T14:06:36;5.95;;;3.10;;
84371;SDS011;74561;50.380;7.626;2024-01-15T14:09:01;10.47;;;4.00;;
84371;SDS011;74561;50.380;7.626;2024-01-15T14:14:14;7.78;;;3.20;;
84371;SDS011;74561;50.380;7.626;2024-01-15T14:16:39;7.00;;;2.67;;
84371;SDS011;74561;50.380;7.626;2024-01-15T14:19:04;6.83;;;3.20;;
84371;SDS011;74561;50.380;7.626;2024-01-15T14:21:34;8.35;;;3.33;;
84371;SDS011;74561;50.380;7.626;2024-01-15T14:24:00;4.85;;;3.15;;
84371;SDS011;74561;50.380;7.626;2024-01-15T14:26:25;6.83;;;2.77;;
84371;SDS011;74561;50.380;7.626;2024-01-15T14:28:51;16.43;;;6.47;;
84371;SDS011;74561;50.380;7.626;2024-01-15T14:31:17;11.90;;;4.88;;
84371;SDS011;74561;50.380;7.626;2024-01-15T14:36:36;6.93;;;4.40;;
84371;SDS011;74561;50.380;7.626;2024-01-15T14:39:02;7.88;;;2.88;;
84371;SDS011;74561;50.380;7.626;2024-01-15T14:41:28;10.27;;;3.30;;
84371;SDS011;74561;50.380;7.626;2024-01-15T14:46:31;7.00;;;3.05;;
84371;SDS011;74561;50.380;7.626;2024-01-15T14:48:57;8.68;;;4.30;;
84371;SDS011;74561;50.380;7.626;2024-01-15T14:51:22;9.93;;;4.77;;
84371;SDS011;74561;50.380;7.626;2024-01-15T14:53:47;11.57;;;3.93;;
84371;SDS011;74561;50.380;7.626;2024-01-15T14:56:13;7.57;;;3.40;;
84371;SDS011;74561;50.380;7.626;2024-01-15T15:01:27;7.25;;;3.97;;
84371;SDS011;74561;50.380;7.626;2024-01-15T15:11:51;8.40;;;3.67;;
84371;SDS011;74561;50.380;7.626;2024-01-15T15:14:17;21.40;;;7.15;;
84371;SDS011;74561;50.380;7.626;2024-01-15T15:16:42;22.35;;;9.30;;
84371;SDS011;74561;50.380;7.626;2024-01-15T15:19:08;13.02;;;5.70;;
84371;SDS011;74561;50.380;7.626;2024-01-15T15:21:33;8.38;;;4.65;;
84371;SDS011;74561;50.380;7.626;2024-01-15T15:23:59;6.50;;;3.30;;
84371;SDS011;74561;50.380;7.626;2024-01-15T15:26:25;6.28;;;3.00;;
84371;SDS011;74561;50.380;7.626;2024-01-15T15:28:50;9.60;;;5.38;;
84371;SDS011;74561;50.380;7.626;2024-01-15T15:31:16;27.67;;;13.15;;
84371;SDS011;74561;50.380;7.626;2024-01-15T15:33:43;13.20;;;7.90;;
84371;SDS011;74561;50.380;7.626;2024-01-15T15:36:09;23.10;;;11.18;;
84371;SDS011;74561;50.380;7.626;2024-01-15T15:38:35;16.13;;;7.53;;
84371;SDS011;74561;50.380;7.626;2024-01-15T15:41:01;5.80;;;3.78;;